createdAt,value
2022-11-12T00:00:18.459Z,67.81
2022-11-12T00:03:48.570Z,67.66
2022-11-12T00:07:10.284Z,67.67
2022-11-12T00:10:32.351Z,67.64
2022-11-12T00:13:53.880Z,67.57
2022-11-12T00:17:15.277Z,67.64
2022-11-12T00:20:37.012Z,67.51
2022-11-12T00:23:58.816Z,67.45
2022-11-12T00:27:20.436Z,67.29
2022-11-12T00:30:42.313Z,67.28
2022-11-12T00:34:04.055Z,67.31
2022-11-12T00:37:25.917Z,67.33
2022-11-12T00:40:47.668Z,67.34
2022-11-12T00:44:09.339Z,67.44
2022-11-12T00:47:30.923Z,67.43
2022-11-12T00:51:00.355Z,67.38
2022-11-12T00:54:22.042Z,67.27
2022-11-12T00:57:43.623Z,67.10
2022-11-12T01:01:11.615Z,66.97
2022-11-12T01:04:33.352Z,67.13
2022-11-12T01:07:56.181Z,67.05
2022-11-12T01:11:22.433Z,67.03
2022-11-12T01:14:43.916Z,66.83
2022-11-12T01:18:05.648Z,67.07
2022-11-12T01:21:30.054Z,67.09
2022-11-12T01:24:51.852Z,67.12
2022-11-12T01:28:13.664Z,66.97
2022-11-12T01:31:37.612Z,67.01
2022-11-12T01:34:59.423Z,66.90
2022-11-12T01:38:21.078Z,66.87
2022-11-12T01:41:42.742Z,66.77
2022-11-12T01:45:15.979Z,66.89
2022-11-12T01:48:45.433Z,66.88
2022-11-12T01:52:22.332Z,66.99
2022-11-12T01:55:43.718Z,66.94
2022-11-12T01:59:17.919Z,67.03
2022-11-12T02:02:40.666Z,66.85
2022-11-12T02:06:11.121Z,66.92
2022-11-12T02:09:33.434Z,67.00
2022-11-12T02:13:13.728Z,67.09
2022-11-12T02:16:41.461Z,67.12
2022-11-12T02:20:03.897Z,67.13
2022-11-12T02:23:25.440Z,67.05
2022-11-12T02:26:51.388Z,66.97
2022-11-12T02:30:13.262Z,66.69
2022-11-12T02:33:34.844Z,66.59
2022-11-12T02:36:56.551Z,66.35
2022-11-12T02:40:18.103Z,66.36
2022-11-12T02:43:40.599Z,66.57
2022-11-12T02:47:01.801Z,66.91
2022-11-12T02:50:23.559Z,67.06
2022-11-12T02:53:44.989Z,67.17
2022-11-12T02:57:06.733Z,67.07
2022-11-12T03:00:28.442Z,67.00
2022-11-12T03:03:50.533Z,67.02
2022-11-12T03:07:12.072Z,66.86
2022-11-12T03:10:34.604Z,66.65
2022-11-12T03:13:56.160Z,66.70
2022-11-12T03:17:17.546Z,66.73
2022-11-12T03:20:39.322Z,66.69
2022-11-12T03:24:01.799Z,66.41
2022-11-12T03:27:23.192Z,66.35
2022-11-12T03:30:45.309Z,66.31
2022-11-12T03:34:07.147Z,66.36
2022-11-12T03:37:28.737Z,66.29
2022-11-12T03:40:50.592Z,66.35
2022-11-12T03:44:12.251Z,66.46
2022-11-12T03:47:34.021Z,66.26
2022-11-12T03:50:59.950Z,66.32
2022-11-12T03:54:21.682Z,66.12
2022-11-12T03:57:44.183Z,65.96
2022-11-12T04:01:05.642Z,66.17
2022-11-12T04:04:47.166Z,66.08
2022-11-12T04:08:34.593Z,66.15
2022-11-12T04:12:15.984Z,66.10
2022-11-12T04:15:37.226Z,66.08
2022-11-12T04:19:20.428Z,65.97
2022-11-12T04:22:41.652Z,66.06
2022-11-12T04:26:21.621Z,66.09
2022-11-12T04:30:02.443Z,66.14
2022-11-12T04:33:24.251Z,66.14
2022-11-12T04:36:46.030Z,66.12
2022-11-12T04:40:28.444Z,66.20
2022-11-12T04:44:08.957Z,66.05
2022-11-12T04:47:38.430Z,66.05
2022-11-12T04:51:02.449Z,66.30
2022-11-12T04:54:23.914Z,66.27
2022-11-12T04:57:45.532Z,66.32
2022-11-12T05:01:07.325Z,66.18
2022-11-12T05:04:29.355Z,66.23
2022-11-12T05:07:53.207Z,66.27
2022-11-12T05:11:14.947Z,66.33
2022-11-12T05:14:36.663Z,66.25
2022-11-12T05:17:58.389Z,66.33
2022-11-12T05:21:43.323Z,66.18
2022-11-12T05:25:06.539Z,66.32
2022-11-12T05:28:28.362Z,66.09
2022-11-12T05:31:50.351Z,66.28
2022-11-12T05:35:12.211Z,66.27
2022-11-12T05:38:33.830Z,66.13
2022-11-12T05:42:12.544Z,66.46
2022-11-12T05:45:35.393Z,66.46
2022-11-12T05:48:57.125Z,66.38
2022-11-12T05:52:18.936Z,66.52
2022-11-12T05:55:40.702Z,66.49
2022-11-12T05:59:04.888Z,66.73
2022-11-12T06:02:26.554Z,66.89
2022-11-12T06:05:48.308Z,66.90
2022-11-12T06:09:10.759Z,66.72
2022-11-12T06:12:32.312Z,66.76
2022-11-12T06:15:55.264Z,66.79
2022-11-12T06:19:16.494Z,66.78
2022-11-12T06:22:38.162Z,66.67
2022-11-12T06:26:00.266Z,66.60
2022-11-12T06:29:21.768Z,66.66
2022-11-12T06:32:49.983Z,66.54
2022-11-12T06:36:14.094Z,66.59
2022-11-12T06:39:35.422Z,66.87
2022-11-12T06:42:58.698Z,66.87
2022-11-12T06:46:20.642Z,67.05
2022-11-12T06:49:42.164Z,67.14
2022-11-12T06:53:03.878Z,67.27
2022-11-12T06:56:25.759Z,67.33
2022-11-12T06:59:47.655Z,67.33
2022-11-12T07:03:10.071Z,67.58
2022-11-12T07:06:34.072Z,67.51
2022-11-12T07:09:55.913Z,67.66
2022-11-12T07:13:19.324Z,67.66
2022-11-12T07:16:41.118Z,67.65
2022-11-12T07:20:04.365Z,67.67
2022-11-12T07:23:26.330Z,67.78
2022-11-12T07:26:47.960Z,67.90
2022-11-12T07:30:10.110Z,67.95
2022-11-12T07:33:32.505Z,67.95
2022-11-12T07:36:53.805Z,68.06
2022-11-12T07:40:15.587Z,68.16
2022-11-12T07:43:38.947Z,68.18
2022-11-12T07:47:00.386Z,68.29
2022-11-12T07:50:22.116Z,68.22
2022-11-12T07:53:44.858Z,68.22
2022-11-12T07:57:06.364Z,68.13
2022-11-12T08:00:27.778Z,68.08
2022-11-12T08:03:49.387Z,67.98
2022-11-12T08:07:11.276Z,67.86
2022-11-12T08:10:32.901Z,67.99
2022-11-12T08:13:54.455Z,68.01
2022-11-12T08:17:16.062Z,67.88
2022-11-12T08:20:38.086Z,67.75
2022-11-12T08:23:59.466Z,67.69
2022-11-12T08:27:21.316Z,67.61
2022-11-12T08:30:43.224Z,67.47
2022-11-12T08:34:12.367Z,67.25
2022-11-12T08:37:34.156Z,67.17
2022-11-12T08:40:55.764Z,67.15
2022-11-12T08:44:17.314Z,66.96
2022-11-12T08:47:39.083Z,67.03
2022-11-12T08:51:02.500Z,66.91
2022-11-12T08:54:24.813Z,66.90
2022-11-12T08:57:46.801Z,66.74
2022-11-12T09:01:09.353Z,66.62
2022-11-12T09:04:30.952Z,66.47
2022-11-12T09:08:07.857Z,66.52
2022-11-12T09:11:29.479Z,66.51
2022-11-12T09:14:53.476Z,66.37
2022-11-12T09:18:18.713Z,66.19
2022-11-12T09:21:40.291Z,66.23
2022-11-12T09:25:02.212Z,66.28
2022-11-12T09:28:27.505Z,65.97
2022-11-12T09:31:50.966Z,65.73
2022-11-12T09:35:12.773Z,65.79
2022-11-12T09:38:34.739Z,65.72
2022-11-12T09:42:01.737Z,65.81
2022-11-12T09:45:29.978Z,65.80
2022-11-12T09:49:02.821Z,65.74
2022-11-12T09:52:28.545Z,65.72
2022-11-12T09:55:51.282Z,65.74
2022-11-12T09:59:14.052Z,65.62
2022-11-12T10:02:45.669Z,65.58
2022-11-12T10:06:19.294Z,65.63
2022-11-12T10:09:53.771Z,65.30
2022-11-12T10:13:30.966Z,65.39
2022-11-12T10:17:02.431Z,65.34
2022-11-12T10:20:43.177Z,65.37
2022-11-12T10:24:09.862Z,65.46
2022-11-12T10:27:39.470Z,65.42
2022-11-12T10:31:14.014Z,65.40
2022-11-12T10:34:36.101Z,65.45
2022-11-12T10:38:04.660Z,65.48
2022-11-12T10:41:33.144Z,65.46
2022-11-12T10:45:24.039Z,65.38
2022-11-12T10:48:56.447Z,65.18
2022-11-12T10:52:41.192Z,65.07
2022-11-12T10:56:05.934Z,64.89
2022-11-12T10:59:27.427Z,64.94
2022-11-12T11:02:52.094Z,64.81
2022-11-12T11:06:16.596Z,64.47
2022-11-12T11:10:00.882Z,64.24
2022-11-12T11:13:28.236Z,64.15
2022-11-12T11:16:54.444Z,63.94
2022-11-12T11:20:29.051Z,63.71
2022-11-12T11:23:55.010Z,63.48
2022-11-12T11:27:32.355Z,63.34
2022-11-12T11:31:03.009Z,63.08
2022-11-12T11:34:49.643Z,63.03
2022-11-12T11:38:35.994Z,62.91
2022-11-12T11:42:03.680Z,62.82
2022-11-12T11:45:49.003Z,62.67
2022-11-12T11:49:58.014Z,62.44
2022-11-12T11:53:30.054Z,62.29
2022-11-12T11:56:58.685Z,62.19
2022-11-12T12:00:23.077Z,61.99
2022-11-12T12:03:44.409Z,62.01
2022-11-12T12:07:20.603Z,61.99
2022-11-12T12:11:11.551Z,61.91
2022-11-12T12:15:05.908Z,61.85
2022-11-12T12:18:30.356Z,61.66
2022-11-12T12:21:53.018Z,61.60
2022-11-12T12:25:23.843Z,61.76
2022-11-12T12:28:55.136Z,61.66
2022-11-12T12:32:24.483Z,61.80
2022-11-12T12:36:03.233Z,61.60
2022-11-12T12:40:00.255Z,61.62
2022-11-12T12:43:24.766Z,61.46
2022-11-12T12:46:52.637Z,61.67
2022-11-12T12:50:19.823Z,61.60
2022-11-12T12:53:41.379Z,61.61
2022-11-12T12:57:04.859Z,61.59
2022-11-12T13:00:38.338Z,61.53
2022-11-12T13:04:08.932Z,61.57
2022-11-12T13:07:48.647Z,61.50
2022-11-12T13:11:10.293Z,61.71
2022-11-12T13:14:34.786Z,61.72
2022-11-12T13:17:56.570Z,61.70
2022-11-12T13:21:20.789Z,61.87
2022-11-12T13:25:01.522Z,61.85
2022-11-12T13:28:23.408Z,61.75
2022-11-12T13:31:45.089Z,61.78
2022-11-12T13:35:27.266Z,61.68
2022-11-12T13:38:49.495Z,61.77
2022-11-12T13:42:37.206Z,61.69
2022-11-12T13:46:12.186Z,61.65
2022-11-12T13:49:35.442Z,61.76
2022-11-12T13:52:58.919Z,61.77
2022-11-12T13:56:31.873Z,61.62
2022-11-12T14:00:08.201Z,61.71
2022-11-12T14:03:37.852Z,61.92
2022-11-12T14:07:47.619Z,61.82
2022-11-12T14:11:31.038Z,61.95
2022-11-12T14:15:42.612Z,62.09
2022-11-12T14:19:14.763Z,62.11
2022-11-12T14:22:43.993Z,62.08
2022-11-12T14:26:05.896Z,62.25
2022-11-12T14:29:32.957Z,62.32
2022-11-12T14:33:08.420Z,62.39
2022-11-12T14:36:30.695Z,62.29
2022-11-12T14:39:52.093Z,62.56
2022-11-12T14:43:46.843Z,62.55
2022-11-12T14:47:09.691Z,62.61
2022-11-12T14:50:39.054Z,62.61
2022-11-12T14:54:14.076Z,62.70
2022-11-12T14:57:36.023Z,62.80
2022-11-12T15:00:57.516Z,62.84
2022-11-12T15:04:21.877Z,62.52
2022-11-12T15:08:10.147Z,62.61
2022-11-12T15:11:47.487Z,62.66
2022-11-12T15:15:17.991Z,62.58
2022-11-12T15:18:40.473Z,62.44
2022-11-12T15:22:03.794Z,62.60
2022-11-12T15:25:32.647Z,62.61
2022-11-12T15:29:15.493Z,62.68
2022-11-12T15:32:36.998Z,62.74
2022-11-12T15:36:01.482Z,62.67
2022-11-12T15:39:25.906Z,62.63
2022-11-12T15:42:48.386Z,62.64
2022-11-12T15:46:15.622Z,62.64
2022-11-12T15:49:56.414Z,62.70
2022-11-12T15:53:18.696Z,62.64
2022-11-12T15:56:40.313Z,62.75
2022-11-12T16:00:08.455Z,62.79
2022-11-12T16:03:31.387Z,62.79
2022-11-12T16:06:53.008Z,62.90
2022-11-12T16:10:16.680Z,62.81
2022-11-12T16:13:38.539Z,62.81
2022-11-12T16:17:00.318Z,62.96
2022-11-12T16:20:25.256Z,63.00
2022-11-12T16:24:18.812Z,63.08
2022-11-12T16:27:41.132Z,63.27
2022-11-12T16:31:03.001Z,63.21
2022-11-12T16:34:25.906Z,63.27
2022-11-12T16:37:47.927Z,63.03
2022-11-12T16:41:11.985Z,63.05
2022-11-12T16:44:33.331Z,63.02
2022-11-12T16:47:56.158Z,62.99
2022-11-12T16:51:20.226Z,63.04
2022-11-12T16:54:42.738Z,63.06
2022-11-12T16:58:07.515Z,63.04
2022-11-12T17:01:31.392Z,63.09
2022-11-12T17:04:53.367Z,63.15
2022-11-12T17:08:17.967Z,63.21
2022-11-12T17:11:39.575Z,63.15
2022-11-12T17:15:01.873Z,63.33
2022-11-12T17:18:23.622Z,63.31
2022-11-12T17:21:45.222Z,63.30
2022-11-12T17:25:07.325Z,63.38
2022-11-12T17:28:30.486Z,63.35
2022-11-12T17:31:53.023Z,63.43
2022-11-12T17:35:15.399Z,63.44
2022-11-12T17:38:37.562Z,63.32
2022-11-12T17:41:59.762Z,63.16
2022-11-12T17:45:21.167Z,63.25
2022-11-12T17:48:42.963Z,63.20
2022-11-12T17:52:04.677Z,63.13
2022-11-12T17:55:26.364Z,63.07
2022-11-12T17:58:50.130Z,63.16
2022-11-12T18:02:12.538Z,63.09
2022-11-12T18:05:34.401Z,63.06
2022-11-12T18:09:00.428Z,63.14
2022-11-12T18:12:21.922Z,63.08
2022-11-12T18:15:43.778Z,63.13
2022-11-12T18:19:05.264Z,63.05
2022-11-12T18:22:27.004Z,63.01
2022-11-12T18:25:48.785Z,62.99
2022-11-12T18:29:10.532Z,62.89
2022-11-12T18:32:32.368Z,62.97
2022-11-12T18:36:05.406Z,62.95
2022-11-12T18:39:27.570Z,62.99
2022-11-12T18:42:49.009Z,63.19
2022-11-12T18:46:11.381Z,63.44
2022-11-12T18:49:33.351Z,63.80
2022-11-12T18:52:55.352Z,64.14
2022-11-12T18:56:19.588Z,64.57
2022-11-12T18:59:41.433Z,64.91
2022-11-12T19:03:03.440Z,65.33
2022-11-12T19:06:25.385Z,65.56
2022-11-12T19:09:47.066Z,65.84
2022-11-12T19:13:08.623Z,65.95
2022-11-12T19:16:30.409Z,66.08
2022-11-12T19:19:52.109Z,66.23
2022-11-12T19:23:13.809Z,66.13
2022-11-12T19:26:35.272Z,66.26
2022-11-12T19:30:02.619Z,66.31
2022-11-12T19:33:25.775Z,66.47
2022-11-12T19:36:48.459Z,66.52
2022-11-12T19:40:14.779Z,66.65
2022-11-12T19:43:36.640Z,66.97
2022-11-12T19:46:58.732Z,67.20
2022-11-12T19:50:24.549Z,67.33
2022-11-12T19:53:46.370Z,67.47
2022-11-12T19:57:08.025Z,67.53
2022-11-12T20:00:29.993Z,67.66
2022-11-12T20:03:51.891Z,67.81
2022-11-12T20:07:13.960Z,67.90
2022-11-12T20:10:39.067Z,68.01
2022-11-12T20:14:00.853Z,67.98
2022-11-12T20:17:22.537Z,68.13
2022-11-12T20:20:56.215Z,68.14
2022-11-12T20:24:17.897Z,68.23
2022-11-12T20:27:39.672Z,68.42
2022-11-12T20:31:03.579Z,68.62
2022-11-12T20:34:25.152Z,68.58
2022-11-12T20:37:46.755Z,68.72
2022-11-12T20:41:14.059Z,68.89
2022-11-12T20:44:35.779Z,69.05
2022-11-12T20:47:57.470Z,69.19
2022-11-12T20:51:25.262Z,69.16
2022-11-12T20:54:47.196Z,69.27
2022-11-12T20:58:08.976Z,69.50
2022-11-12T21:01:30.939Z,69.51
2022-11-12T21:04:54.704Z,69.55
2022-11-12T21:08:16.314Z,69.58
2022-11-12T21:11:37.892Z,69.62
2022-11-12T21:15:00.228Z,69.74
2022-11-12T21:18:27.067Z,69.94
2022-11-12T21:21:48.795Z,69.93
2022-11-12T21:25:10.542Z,69.97
2022-11-12T21:28:34.998Z,70.05
2022-11-12T21:31:56.270Z,70.09
2022-11-12T21:35:18.402Z,70.06
2022-11-12T21:38:40.208Z,70.13
2022-11-12T21:42:01.840Z,70.15
2022-11-12T21:45:23.668Z,70.36
2022-11-12T21:48:48.239Z,70.29
2022-11-12T21:52:13.019Z,70.44
2022-11-12T21:55:34.810Z,70.47
2022-11-12T21:59:00.756Z,70.32
2022-11-12T22:02:22.764Z,70.35
2022-11-12T22:05:44.573Z,70.36
2022-11-12T22:09:06.356Z,70.27
2022-11-12T22:12:27.987Z,70.41
2022-11-12T22:15:50.719Z,70.28
2022-11-12T22:19:12.939Z,70.54
2022-11-12T22:22:34.669Z,70.49
2022-11-12T22:25:57.571Z,70.51
2022-11-12T22:29:19.275Z,70.62
2022-11-12T22:32:41.048Z,70.52
2022-11-12T22:36:05.348Z,70.53
2022-11-12T22:39:27.285Z,70.55
2022-11-12T22:42:48.864Z,70.55
2022-11-12T22:46:12.258Z,70.58
2022-11-12T22:49:33.702Z,70.62
2022-11-12T22:52:56.245Z,70.66
2022-11-12T22:56:18.035Z,70.64
2022-11-12T22:59:39.834Z,70.63
2022-11-12T23:03:01.379Z,70.74
2022-11-12T23:06:23.265Z,70.73
2022-11-12T23:09:45.067Z,70.77
2022-11-12T23:13:06.939Z,70.76
2022-11-12T23:16:30.708Z,70.70
2022-11-12T23:19:52.327Z,70.76
2022-11-12T23:23:14.224Z,70.83
2022-11-12T23:26:35.815Z,70.90
2022-11-12T23:29:57.367Z,70.86
2022-11-12T23:33:19.143Z,70.78
2022-11-12T23:36:40.957Z,70.82
2022-11-12T23:40:03.023Z,70.76
2022-11-12T23:43:24.551Z,70.94
2022-11-12T23:46:46.289Z,70.81
2022-11-12T23:50:08.435Z,70.88
2022-11-12T23:53:30.995Z,70.81
2022-11-12T23:56:52.544Z,70.92
